createdAt,value
2022-12-16T00:00:09.226Z,28.70
2022-12-16T00:02:58.539Z,30.88
2022-12-16T00:05:48.745Z,31.13
2022-12-16T00:08:39.779Z,30.83
2022-12-16T00:11:27.628Z,29.25
2022-12-16T00:14:14.792Z,29.83
2022-12-16T00:17:01.939Z,28.33
2022-12-16T00:19:49.146Z,29.13
2022-12-16T00:22:36.280Z,28.77
2022-12-16T00:25:23.410Z,29.27
2022-12-16T00:28:11.621Z,30.23
2022-12-16T00:30:59.080Z,32.00
2022-12-16T00:33:46.226Z,26.85
2022-12-16T00:36:33.642Z,29.35
2022-12-16T00:39:20.807Z,30.35
2022-12-16T00:42:07.925Z,30.33
2022-12-16T00:44:55.317Z,29.73
2022-12-16T00:47:44.019Z,31.48
2022-12-16T00:50:31.801Z,27.70
2022-12-16T00:53:19.966Z,29.00
2022-12-16T00:56:09.641Z,30.45
2022-12-16T00:58:56.881Z,27.52
2022-12-16T01:01:44.203Z,31.70
2022-12-16T01:04:31.550Z,31.20
2022-12-16T01:07:18.808Z,30.73
2022-12-16T01:10:07.570Z,30.38
2022-12-16T01:12:55.640Z,28.98
2022-12-16T01:15:42.722Z,30.48
2022-12-16T01:18:29.833Z,28.27
2022-12-16T01:21:16.976Z,32.00
2022-12-16T01:24:04.501Z,32.13
2022-12-16T01:26:51.642Z,33.00
2022-12-16T01:29:39.887Z,30.73
2022-12-16T01:32:27.279Z,29.77
2022-12-16T01:35:50.951Z,31.07
2022-12-16T01:38:21.776Z,28.30
2022-12-16T01:41:10.512Z,30.80
2022-12-16T01:44:20.214Z,30.20
2022-12-16T01:47:07.480Z,31.10
2022-12-16T01:50:04.488Z,30.13
2022-12-16T01:52:56.546Z,30.20
2022-12-16T01:55:50.963Z,28.67
2022-12-16T01:58:40.786Z,25.70
2022-12-16T02:01:28.236Z,26.37
2022-12-16T02:04:15.500Z,27.13
2022-12-16T02:07:02.814Z,30.07
2022-12-16T02:09:50.152Z,28.10
2022-12-16T02:12:54.366Z,29.60
2022-12-16T02:16:04.776Z,29.60
2022-12-16T02:19:16.958Z,28.33
2022-12-16T02:22:09.930Z,26.23
2022-12-16T02:25:09.119Z,27.97
2022-12-16T02:28:11.779Z,24.90
2022-12-16T02:31:37.652Z,27.97
2022-12-16T02:35:08.392Z,26.67
2022-12-16T02:38:33.118Z,28.10
2022-12-16T02:41:52.317Z,27.47
2022-12-16T02:45:07.328Z,28.43
2022-12-16T02:47:54.655Z,26.67
2022-12-16T02:51:00.431Z,26.30
2022-12-16T02:53:50.684Z,27.47
2022-12-16T02:56:46.926Z,27.43
2022-12-16T03:00:07.816Z,26.77
2022-12-16T03:03:19.276Z,26.23
2022-12-16T03:06:08.178Z,26.70
2022-12-16T03:08:59.902Z,28.10
2022-12-16T03:11:49.739Z,27.63
2022-12-16T03:14:42.253Z,29.03
2022-12-16T03:17:29.514Z,28.02
2022-12-16T03:20:28.164Z,29.50
2022-12-16T03:23:19.926Z,28.33
2022-12-16T03:26:12.366Z,27.37
2022-12-16T03:29:05.971Z,28.93
2022-12-16T03:32:00.454Z,25.90
2022-12-16T03:34:53.180Z,27.77
2022-12-16T03:37:43.010Z,25.73
2022-12-16T03:40:32.043Z,27.73
2022-12-16T03:43:19.807Z,24.47
2022-12-16T03:46:08.285Z,28.60
2022-12-16T03:48:55.809Z,28.40
2022-12-16T03:51:43.015Z,25.63
2022-12-16T03:54:30.313Z,26.17
2022-12-16T03:57:17.760Z,27.73
2022-12-16T04:00:06.221Z,27.10
2022-12-16T04:02:53.738Z,25.30
2022-12-16T04:05:41.280Z,26.97
2022-12-16T04:08:28.461Z,25.03
2022-12-16T04:11:34.786Z,29.77
2022-12-16T04:14:40.710Z,25.80
2022-12-16T04:17:46.434Z,26.13
2022-12-16T04:20:56.224Z,25.37
2022-12-16T04:24:16.252Z,24.42
2022-12-16T04:27:21.887Z,25.52
2022-12-16T04:30:22.226Z,24.48
2022-12-16T04:33:33.781Z,26.73
2022-12-16T04:36:39.998Z,25.98
2022-12-16T04:39:45.900Z,25.02
2022-12-16T04:42:52.071Z,23.83
2022-12-16T04:45:58.017Z,23.17
2022-12-16T04:49:03.906Z,25.50
2022-12-16T04:52:09.738Z,22.42
2022-12-16T04:55:15.594Z,24.15
2022-12-16T04:58:22.306Z,24.85
2022-12-16T05:01:28.373Z,25.88
2022-12-16T05:04:33.994Z,24.00
2022-12-16T05:07:39.798Z,24.38
2022-12-16T05:10:45.838Z,24.27
2022-12-16T05:13:51.681Z,22.77
2022-12-16T05:16:57.735Z,24.75
2022-12-16T05:20:03.355Z,24.50
2022-12-16T05:23:09.176Z,26.90
2022-12-16T05:26:15.097Z,24.42
2022-12-16T05:29:21.046Z,24.08
2022-12-16T05:32:26.806Z,26.58
2022-12-16T05:35:32.703Z,22.77
2022-12-16T05:38:38.953Z,24.33
2022-12-16T05:41:44.796Z,23.88
2022-12-16T05:44:51.191Z,25.45
2022-12-16T05:47:58.068Z,25.25
2022-12-16T05:51:03.888Z,23.88
2022-12-16T05:54:09.502Z,25.60
2022-12-16T05:57:15.558Z,24.85
2022-12-16T06:00:21.636Z,24.10
2022-12-16T06:03:28.015Z,26.50
2022-12-16T06:06:33.762Z,26.50
2022-12-16T06:09:39.607Z,26.05
2022-12-16T06:12:45.740Z,24.60
2022-12-16T06:15:51.800Z,25.10
2022-12-16T06:18:57.689Z,25.27
2022-12-16T06:22:03.117Z,27.07
2022-12-16T06:25:08.810Z,26.67
2022-12-16T06:28:14.534Z,25.20
2022-12-16T06:31:20.621Z,24.53
2022-12-16T06:34:26.938Z,26.13
2022-12-16T06:37:32.591Z,25.43
2022-12-16T06:40:38.126Z,26.70
2022-12-16T06:43:43.887Z,25.70
2022-12-16T06:46:49.795Z,27.00
2022-12-16T06:49:55.308Z,26.75
2022-12-16T06:53:04.624Z,25.17
2022-12-16T06:56:10.456Z,27.23
2022-12-16T06:59:16.080Z,27.63
2022-12-16T07:02:22.183Z,27.00
2022-12-16T07:05:28.007Z,25.60
2022-12-16T07:08:33.755Z,27.40
2022-12-16T07:11:39.842Z,25.20
2022-12-16T07:14:45.741Z,25.70
2022-12-16T07:17:51.935Z,25.90
2022-12-16T07:20:57.525Z,27.27
2022-12-16T07:24:03.693Z,27.77
2022-12-16T07:27:09.476Z,25.40
2022-12-16T07:30:15.125Z,28.90
2022-12-16T07:33:21.043Z,27.90
2022-12-16T07:36:27.247Z,27.77
2022-12-16T07:39:32.814Z,27.37
2022-12-16T07:42:38.402Z,26.80
2022-12-16T07:45:45.418Z,30.53
2022-12-16T07:48:51.792Z,27.33
2022-12-16T07:51:58.537Z,27.60
2022-12-16T07:55:04.134Z,29.97
2022-12-16T07:58:10.696Z,29.93
2022-12-16T08:01:16.352Z,27.90
2022-12-16T08:04:32.783Z,28.40
2022-12-16T08:07:38.636Z,30.03
2022-12-16T08:10:44.455Z,30.10
2022-12-16T08:13:50.710Z,31.97
2022-12-16T08:16:56.763Z,28.73
2022-12-16T08:20:22.245Z,30.00
2022-12-16T08:23:28.360Z,30.03
2022-12-16T08:26:34.333Z,31.30
2022-12-16T08:29:44.895Z,30.77
2022-12-16T08:32:55.713Z,33.13
2022-12-16T08:36:04.213Z,31.07
2022-12-16T08:39:10.313Z,29.97
2022-12-16T08:42:16.223Z,31.30
2022-12-16T08:45:22.278Z,30.67
2022-12-16T08:48:28.173Z,30.87
2022-12-16T08:51:34.140Z,32.23
2022-12-16T08:54:40.183Z,30.87
2022-12-16T08:57:46.015Z,30.67
2022-12-16T09:00:51.766Z,31.20
2022-12-16T09:03:57.834Z,31.17
2022-12-16T09:07:04.768Z,31.63
2022-12-16T09:10:10.361Z,34.97
2022-12-16T09:13:27.083Z,34.80
2022-12-16T09:16:33.058Z,33.10
2022-12-16T09:19:38.911Z,30.50
2022-12-16T09:22:44.799Z,32.27
2022-12-16T09:25:50.604Z,29.60
2022-12-16T09:28:56.684Z,30.87
2022-12-16T09:32:02.516Z,30.20
2022-12-16T09:35:13.276Z,29.27
2022-12-16T09:38:19.313Z,33.10
2022-12-16T09:41:48.552Z,29.57
2022-12-16T09:45:10.093Z,30.07
2022-12-16T09:48:41.195Z,30.77
2022-12-16T09:51:47.681Z,30.40
2022-12-16T09:54:57.179Z,31.90
2022-12-16T09:58:03.772Z,33.77
2022-12-16T10:01:10.166Z,31.77
2022-12-16T10:04:16.873Z,31.30
2022-12-16T10:07:25.818Z,35.10
2022-12-16T10:10:50.742Z,33.10
2022-12-16T10:13:56.715Z,33.53
2022-12-16T10:17:30.917Z,34.27
2022-12-16T10:21:03.254Z,35.20
2022-12-16T10:24:51.219Z,34.07
2022-12-16T10:28:05.941Z,32.10
2022-12-16T10:31:11.727Z,35.27
2022-12-16T10:34:17.953Z,33.57
2022-12-16T10:37:24.377Z,33.30
2022-12-16T10:40:37.634Z,35.50
2022-12-16T10:44:05.496Z,35.03
2022-12-16T10:47:11.931Z,34.33
2022-12-16T10:50:18.338Z,33.20
2022-12-16T10:53:35.414Z,34.80
2022-12-16T10:56:59.561Z,32.20
2022-12-16T11:00:05.451Z,36.27
2022-12-16T11:03:11.884Z,34.20
2022-12-16T11:06:20.283Z,35.77
2022-12-16T11:09:49.016Z,33.23
2022-12-16T11:12:55.215Z,35.33
2022-12-16T11:16:02.073Z,35.77
2022-12-16T11:19:09.294Z,33.60
2022-12-16T11:22:30.518Z,32.90
2022-12-16T11:25:40.516Z,33.23
2022-12-16T11:28:46.093Z,32.43
2022-12-16T11:31:56.474Z,33.77
2022-12-16T11:35:10.757Z,36.90
2022-12-16T11:38:17.693Z,32.60
2022-12-16T11:41:24.954Z,35.83
2022-12-16T11:44:40.675Z,33.93
2022-12-16T11:47:58.391Z,34.93
2022-12-16T11:51:14.774Z,35.00
2022-12-16T11:54:23.285Z,37.50
2022-12-16T11:58:05.978Z,38.00
2022-12-16T12:01:21.014Z,36.70
2022-12-16T12:04:26.948Z,37.33
2022-12-16T12:08:02.218Z,34.90
2022-12-16T12:11:47.844Z,36.30
2022-12-16T12:15:21.142Z,35.00
2022-12-16T12:18:43.383Z,35.23
2022-12-16T12:21:49.323Z,33.60
2022-12-16T12:24:58.302Z,40.50
2022-12-16T12:28:07.491Z,36.17
2022-12-16T12:31:34.987Z,35.83
2022-12-16T12:35:31.466Z,37.03
2022-12-16T12:39:05.135Z,38.33
2022-12-16T12:42:50.037Z,40.10
2022-12-16T12:45:55.997Z,34.67
2022-12-16T12:49:30.640Z,37.10
2022-12-16T12:52:49.797Z,35.87
2022-12-16T12:56:22.865Z,38.33
2022-12-16T12:59:46.005Z,37.20
2022-12-16T13:03:01.103Z,39.80
2022-12-16T13:06:07.824Z,37.67
2022-12-16T13:09:16.520Z,38.67
2022-12-16T13:12:25.131Z,39.10
2022-12-16T13:15:37.756Z,38.37
2022-12-16T13:18:48.547Z,39.90
2022-12-16T13:21:57.375Z,40.80
2022-12-16T13:25:09.523Z,37.73
2022-12-16T13:28:15.856Z,37.17
2022-12-16T13:31:25.939Z,39.03
2022-12-16T13:34:34.490Z,39.27
2022-12-16T13:37:43.911Z,38.33
2022-12-16T13:41:07.973Z,36.83
2022-12-16T13:44:14.899Z,41.97
2022-12-16T13:47:20.736Z,40.40
2022-12-16T13:50:55.853Z,38.70
2022-12-16T13:54:11.118Z,35.37
2022-12-16T13:57:25.289Z,38.17
2022-12-16T14:01:06.265Z,38.20
2022-12-16T14:07:44.623Z,37.27
2022-12-16T14:11:05.894Z,36.30
2022-12-16T14:14:43.191Z,38.40
2022-12-16T14:18:14.443Z,36.97
2022-12-16T14:21:40.127Z,39.33
2022-12-16T14:24:49.048Z,37.60
2022-12-16T14:28:03.382Z,38.00
2022-12-16T14:34:58.915Z,40.20
2022-12-16T14:38:04.800Z,39.10
2022-12-16T14:41:20.998Z,39.50
2022-12-16T14:44:53.538Z,37.70
2022-12-16T14:48:10.585Z,38.50
2022-12-16T14:51:35.014Z,38.70
2022-12-16T14:55:29.182Z,40.87
2022-12-16T14:58:38.002Z,38.00
2022-12-16T15:01:45.305Z,36.90
2022-12-16T15:04:51.240Z,37.00
2022-12-16T15:07:57.939Z,37.37
2022-12-16T15:11:04.331Z,39.80
2022-12-16T15:14:14.756Z,36.77
2022-12-16T15:17:21.313Z,40.40
2022-12-16T15:20:38.030Z,37.00
2022-12-16T15:23:48.777Z,37.80
2022-12-16T15:26:54.973Z,43.20
2022-12-16T15:30:01.522Z,37.17
2022-12-16T15:33:21.015Z,40.47
2022-12-16T15:36:35.226Z,39.33
2022-12-16T15:39:42.920Z,41.97
2022-12-16T15:42:51.355Z,38.47
2022-12-16T15:45:57.213Z,36.57
2022-12-16T15:49:07.930Z,39.40
2022-12-16T15:52:13.574Z,42.83
2022-12-16T15:55:19.645Z,38.50
2022-12-16T15:58:34.559Z,40.37
2022-12-16T16:01:45.929Z,38.80
2022-12-16T16:04:52.330Z,39.10
2022-12-16T16:08:02.014Z,36.03
2022-12-16T16:11:09.720Z,40.50
2022-12-16T16:14:15.715Z,39.40
2022-12-16T16:17:22.062Z,40.33
2022-12-16T16:20:33.529Z,39.03
2022-12-16T16:23:39.413Z,37.00
2022-12-16T16:26:46.889Z,38.03
2022-12-16T16:29:52.866Z,38.20
2022-12-16T16:32:58.502Z,38.20
2022-12-16T16:36:04.358Z,38.80
2022-12-16T16:39:10.159Z,37.93
2022-12-16T16:42:16.018Z,36.20
2022-12-16T16:45:22.111Z,40.07
2022-12-16T16:48:36.035Z,40.53
2022-12-16T16:51:41.511Z,42.50
2022-12-16T16:54:47.441Z,41.93
2022-12-16T16:57:55.546Z,40.60
2022-12-16T17:01:22.599Z,42.30
2022-12-16T17:04:28.571Z,39.17
2022-12-16T17:07:34.430Z,39.40
2022-12-16T17:10:40.050Z,39.57
2022-12-16T17:13:46.057Z,42.13
2022-12-16T17:16:52.143Z,39.10
2022-12-16T17:19:58.030Z,38.80
2022-12-16T17:23:03.628Z,39.47
2022-12-16T17:26:09.626Z,42.50
2022-12-16T17:29:16.935Z,35.83
2022-12-16T17:32:23.199Z,42.60
2022-12-16T17:35:30.471Z,43.60
2022-12-16T17:38:36.033Z,39.93
2022-12-16T17:41:41.931Z,39.53
2022-12-16T17:44:47.674Z,42.73
2022-12-16T17:47:53.432Z,41.53
2022-12-16T17:50:59.378Z,44.20
2022-12-16T17:54:14.552Z,41.87
2022-12-16T17:57:23.436Z,48.00
2022-12-16T18:00:29.545Z,43.13
2022-12-16T18:03:35.590Z,45.17
2022-12-16T18:06:41.567Z,40.90
2022-12-16T18:09:47.265Z,39.63
2022-12-16T18:12:53.301Z,40.80
2022-12-16T18:15:59.356Z,42.03
2022-12-16T18:19:08.767Z,41.90
2022-12-16T18:22:14.883Z,43.83
2022-12-16T18:25:20.751Z,42.10
2022-12-16T18:28:26.323Z,40.83
2022-12-16T18:31:32.543Z,42.53
2022-12-16T18:34:38.937Z,45.07
2022-12-16T18:37:44.956Z,39.67
2022-12-16T18:40:50.809Z,42.40
2022-12-16T18:43:57.322Z,43.90
2022-12-16T18:47:05.359Z,43.10
2022-12-16T18:50:10.919Z,45.43
2022-12-16T18:53:21.238Z,45.67
2022-12-16T18:56:27.816Z,45.20
2022-12-16T18:59:33.602Z,44.50
2022-12-16T19:02:39.328Z,44.83
2022-12-16T19:05:45.550Z,44.30
2022-12-16T19:08:51.140Z,42.00
2022-12-16T19:11:56.963Z,46.20
2022-12-16T19:15:02.568Z,43.57
2022-12-16T19:18:08.446Z,42.70
2022-12-16T19:21:16.501Z,43.37
2022-12-16T19:24:22.423Z,42.13
2022-12-16T19:27:28.552Z,37.20
2022-12-16T19:30:34.224Z,33.07
2022-12-16T19:33:39.656Z,35.37
2022-12-16T19:40:11.273Z,33.63
2022-12-16T19:43:16.755Z,31.93
2022-12-16T19:46:22.743Z,32.77
2022-12-16T19:49:28.372Z,32.90
2022-12-16T19:52:34.379Z,33.07
2022-12-16T19:55:40.367Z,38.40
2022-12-16T19:58:46.354Z,35.50
2022-12-16T20:01:52.198Z,33.87
2022-12-16T20:05:01.359Z,35.97
2022-12-16T20:08:07.275Z,32.07
2022-12-16T20:11:13.254Z,39.23
2022-12-16T20:14:18.867Z,34.63
2022-12-16T20:17:25.117Z,36.90
2022-12-16T20:20:30.822Z,33.60
2022-12-16T20:23:36.644Z,34.37
2022-12-16T20:26:42.665Z,36.47
2022-12-16T20:29:48.587Z,38.47
2022-12-16T20:32:54.826Z,39.00
2022-12-16T20:36:12.481Z,36.00
2022-12-16T20:39:18.298Z,33.37
2022-12-16T20:42:24.142Z,37.20
2022-12-16T20:45:30.515Z,37.47
2022-12-16T20:48:36.502Z,41.17
2022-12-16T20:51:42.375Z,33.50
2022-12-16T20:54:55.998Z,34.30
2022-12-16T20:58:02.056Z,35.50
2022-12-16T21:01:14.480Z,34.07
2022-12-16T21:04:20.078Z,34.10
2022-12-16T21:07:28.652Z,35.20
2022-12-16T21:10:34.173Z,35.97
2022-12-16T21:13:39.766Z,36.73
2022-12-16T21:16:45.381Z,35.30
2022-12-16T21:19:51.797Z,38.10
2022-12-16T21:22:57.391Z,34.30
2022-12-16T21:26:03.108Z,35.57
2022-12-16T21:29:09.945Z,39.60
2022-12-16T21:32:15.640Z,38.47
2022-12-16T21:35:21.559Z,36.23
2022-12-16T21:38:28.884Z,38.27
2022-12-16T21:41:34.669Z,37.30
2022-12-16T21:44:40.314Z,35.10
2022-12-16T21:47:45.854Z,36.03
2022-12-16T21:50:51.805Z,38.77
2022-12-16T21:53:58.189Z,35.67
2022-12-16T21:57:05.610Z,39.30
2022-12-16T22:00:11.585Z,36.93
2022-12-16T22:03:17.449Z,39.00
2022-12-16T22:06:23.487Z,41.43
2022-12-16T22:09:29.753Z,37.20
2022-12-16T22:12:35.784Z,42.07
2022-12-16T22:15:41.317Z,39.37
2022-12-16T22:18:46.982Z,40.40
2022-12-16T22:21:52.702Z,41.90
2022-12-16T22:24:59.301Z,37.07
2022-12-16T22:28:05.584Z,37.10
2022-12-16T22:31:15.764Z,34.20
2022-12-16T22:34:22.036Z,35.53
2022-12-16T22:37:28.018Z,36.00
2022-12-16T22:40:34.025Z,37.70
2022-12-16T22:43:50.284Z,34.97
2022-12-16T22:46:56.221Z,36.93
2022-12-16T22:50:06.675Z,38.97
2022-12-16T22:53:12.626Z,37.87
2022-12-16T22:56:18.235Z,36.53
2022-12-16T22:59:23.973Z,41.00
2022-12-16T23:02:30.385Z,41.63
2022-12-16T23:05:40.080Z,40.73
2022-12-16T23:08:45.709Z,40.37
2022-12-16T23:11:56.660Z,42.63
2022-12-16T23:15:02.196Z,42.27
2022-12-16T23:18:07.703Z,37.00
2022-12-16T23:21:13.469Z,38.40
2022-12-16T23:24:19.282Z,34.27
2022-12-16T23:27:25.111Z,32.10
2022-12-16T23:30:31.031Z,33.07
2022-12-16T23:33:37.086Z,31.80
2022-12-16T23:36:43.361Z,33.47
2022-12-16T23:39:48.906Z,37.97
2022-12-16T23:42:54.851Z,37.40
2022-12-16T23:46:03.188Z,30.80
2022-12-16T23:49:09.423Z,36.00
2022-12-16T23:52:15.213Z,36.17
2022-12-16T23:55:20.784Z,35.97
2022-12-16T23:58:27.749Z,37.80
